Time;durP1;ratioP1;P1;durP2;ratioP2;P2;SDS_P1;SDS_P2;PMS_P1;PMS_P2;Temp;Humidity;BMP_temperature;BMP_pressure;BME280_temperature;BME280_humidity;BME280_pressure;Samples;Min_cycle;Max_cycle;Signal;HPM_P1;HPM_P2
2021/12/08 00:00:58;;;;;;;8.95;2.83;;;;;;;4.28;73.40;99139.38;5094080;28;20048;-68
2021/12/08 00:03:28;;;;;;;10.65;2.80;;;;;;;4.38;72.00;99144.50;5094208;28;20146;-67
2021/12/08 00:05:55;;;;;;;10.10;2.75;;;;;;;4.47;72.67;99135.72;5094754;28;20059;-67
2021/12/08 00:08:26;;;;;;;12.15;2.58;;;;;;;4.34;73.41;99138.75;5091877;28;20051;-67
2021/12/08 00:13:35;;;;;;;9.02;2.58;;;;;;;4.21;74.34;99133.06;5131056;27;20112;-67
2021/12/08 00:16:06;;;;;;;8.52;2.63;;;;;;;4.36;74.95;99135.97;5129451;28;20039;-67
2021/12/08 00:18:34;;;;;;;9.23;2.75;;;;;;;4.29;76.78;99134.94;5130872;27;20118;-67
2021/12/08 00:21:07;;;;;;;11.55;2.75;;;;;;;4.30;77.09;99134.78;5131313;27;20043;-67
2021/12/08 00:23:34;;;;;;;19.27;2.88;;;;;;;4.33;75.35;99128.41;5113359;28;20040;-67
2021/12/08 00:26:01;;;;;;;11.25;3.08;;;;;;;4.06;77.38;99105.72;5112668;28;20043;-67
2021/12/08 00:28:27;;;;;;;10.52;3.45;;;;;;;3.99;78.34;99114.19;5130391;27;20043;-67
2021/12/08 00:30:56;;;;;;;9.98;2.70;;;;;;;4.22;78.55;99127.69;5129551;28;20050;-67
2021/12/08 00:33:27;;;;;;;11.40;2.72;;;;;;;4.02;77.55;99113.91;5129444;28;20035;-67
2021/12/08 00:35:55;;;;;;;7.85;2.53;;;;;;;4.08;78.81;99115.09;5094386;28;20043;-67
2021/12/08 00:38:22;;;;;;;9.68;2.60;;;;;;;4.19;77.97;99087.78;5129341;28;20123;-67
2021/12/08 00:40:50;;;;;;;9.63;2.90;;;;;;;4.11;78.70;99106.09;5130671;27;20488;-67
2021/12/08 00:43:18;;;;;;;11.25;2.67;;;;;;;4.02;79.32;99100.78;5129086;28;20043;-67
2021/12/08 00:45:46;;;;;;;7.80;2.75;;;;;;;4.19;79.85;99130.59;5129243;27;20048;-67
2021/12/08 00:48:13;;;;;;;7.57;2.58;;;;;;;4.16;79.55;99114.34;5129279;28;20040;-67
2021/12/08 00:50:41;;;;;;;9.35;3.00;;;;;;;4.25;79.29;99117.84;5130243;28;20039;-67
2021/12/08 00:53:08;;;;;;;10.25;2.85;;;;;;;4.33;79.16;99120.50;5130321;27;20082;-67
2021/12/08 00:55:36;;;;;;;7.15;2.53;;;;;;;4.21;78.21;99123.41;5112131;28;20047;-68
2021/12/08 00:58:03;;;;;;;7.63;2.60;;;;;;;4.18;78.19;99120.25;5128945;28;20047;-67
2021/12/08 01:00:35;;;;;;;8.98;2.55;;;;;;;4.19;78.96;99135.03;5129112;28;20047;-67
2021/12/08 01:03:02;;;;;;;10.55;2.78;;;;;;;4.20;79.71;99139.28;5131067;27;20181;-67
2021/12/08 01:05:33;;;;;;;9.75;2.40;;;;;;;4.23;79.40;99125.88;5127089;28;20404;-67
2021/12/08 01:08:00;;;;;;;10.38;2.67;;;;;;;4.17;79.38;99131.75;5128924;28;20039;-67
2021/12/08 01:10:28;;;;;;;11.35;2.90;;;;;;;4.20;79.44;99145.38;5094859;28;20055;-68
2021/12/08 01:13:06;;;;;;;9.68;2.50;;;;;;;4.18;78.92;99133.38;5128348;28;20067;-66
2021/12/08 01:15:35;;;;;;;8.60;2.90;;;;;;;4.23;80.08;99137.19;5128623;28;20045;-67
2021/12/08 01:18:02;;;;;;;9.18;3.22;;;;;;;4.26;79.39;99148.34;5129831;27;20112;-66
2021/12/08 01:20:29;;;;;;;11.02;3.42;;;;;;;4.28;79.93;99135.94;5130217;27;20031;-65
2021/12/08 01:22:56;;;;;;;10.85;2.60;;;;;;;4.33;79.84;99126.63;5148242;27;20043;-68
2021/12/08 01:25:22;;;;;;;8.55;2.88;;;;;;;4.34;79.63;99124.81;5135074;27;20061;-68
2021/12/08 01:27:49;;;;;;;6.95;2.50;;;;;;;4.37;79.09;99124.50;5120183;27;20039;-68
2021/12/08 01:30:16;;;;;;;8.60;2.53;;;;;;;4.31;80.35;99114.59;5115811;28;20146;-68
2021/12/08 01:32:43;;;;;;;10.38;2.70;;;;;;;4.46;80.02;99118.34;5114643;28;20508;-67
2021/12/08 01:35:11;;;;;;;7.38;2.83;;;;;;;4.36;79.59;99123.66;5095820;28;20058;-67
2021/12/08 01:37:39;;;;;;;8.82;2.63;;;;;;;4.43;80.37;99132.56;5097597;28;20377;-66
2021/12/08 01:40:09;;;;;;;10.90;2.80;;;;;;;4.55;79.36;99121.84;5115873;28;20531;-67
2021/12/08 01:42:43;;;;;;;7.28;2.63;;;;;;;4.42;80.32;99119.59;5115727;28;20050;-68
2021/12/08 01:48:00;;;;;;;9.77;2.67;;;;;;;4.45;80.16;99135.06;5114385;28;20047;-68
2021/12/08 01:50:27;;;;;;;9.38;2.50;;;;;;;4.51;79.30;99141.47;5115614;28;20040;-68
2021/12/08 01:52:55;;;;;;;9.00;2.50;;;;;;;4.53;80.40;99145.63;5115403;28;20400;-66
2021/12/08 01:55:21;;;;;;;9.93;2.40;;;;;;;4.55;79.84;99142.84;5115175;28;20040;-67
2021/12/08 01:57:48;;;;;;;11.07;2.92;;;;;;;4.45;79.50;99150.81;5097467;28;20055;-68
2021/12/08 02:00:23;;;;;;;7.28;2.50;;;;;;;4.47;79.96;99148.84;5115091;28;20044;-67
2021/12/08 02:02:59;;;;;;;10.13;2.58;;;;;;;4.46;79.92;99139.34;5114273;28;20506;-68
2021/12/08 02:05:27;;;;;;;7.72;2.50;;;;;;;4.61;79.91;99139.59;5115100;28;20404;-68
2021/12/08 02:07:54;;;;;;;8.93;2.78;;;;;;;4.66;79.15;99139.97;5115025;28;20088;-68
2021/12/08 02:10:22;;;;;;;9.80;2.95;;;;;;;4.68;79.64;99148.50;5112009;28;20567;-67
2021/12/08 02:12:49;;;;;;;9.90;2.67;;;;;;;4.60;79.14;99149.28;5114358;28;20048;-67
2021/12/08 02:15:18;;;;;;;6.63;2.60;;;;;;;4.60;79.71;99145.81;5080216;28;20052;-68
2021/12/08 02:17:47;;;;;;;8.23;2.50;;;;;;;4.46;80.02;99151.63;5113584;28;20047;-68
2021/12/08 02:20:15;;;;;;;11.15;2.80;;;;;;;4.61;79.54;99148.28;5114130;28;20404;-67
2021/12/08 02:22:42;;;;;;;6.75;2.45;;;;;;;4.65;80.80;99156.69;5096795;28;20446;-67
2021/12/08 02:25:14;;;;;;;6.03;2.40;;;;;;;4.71;79.72;99155.25;5110268;28;20504;-68
2021/12/08 02:27:41;;;;;;;4.87;2.07;;;;;;;4.80;80.90;99165.66;5093213;28;20101;-67
2021/12/08 02:30:18;;;;;;;10.73;2.63;;;;;;;4.72;79.67;99160.34;5076534;28;20043;-67
2021/12/08 02:46:45;;;;;;;7.28;2.38;;;;;;;4.88;79.66;99175.38;5090728;28;20045;-67
2021/12/08 02:49:13;;;;;;;7.47;2.40;;;;;;;4.99;79.13;99174.28;5073884;28;20082;-67
2021/12/08 02:51:41;;;;;;;8.20;2.70;;;;;;;4.97;78.82;99171.00;5090119;28;20044;-67
2021/12/08 02:54:10;;;;;;;8.82;2.45;;;;;;;5.01;79.25;99174.97;5088358;28;20066;-67
2021/12/08 02:56:37;;;;;;;6.60;2.30;;;;;;;5.04;79.27;99177.28;5089546;28;20089;-67
2021/12/08 02:59:05;;;;;;;7.18;2.22;;;;;;;5.06;78.99;99175.31;5088526;28;20041;-67
2021/12/08 03:01:33;;;;;;;7.28;2.53;;;;;;;4.90;79.96;99183.13;5071964;28;20052;-67
2021/12/08 03:04:00;;;;;;;6.78;2.75;;;;;;;4.98;79.12;99181.38;5086573;28;20042;-66
2021/12/08 03:06:26;;;;;;;11.38;2.78;;;;;;;4.71;79.89;99179.72;5081502;28;20056;-66
2021/12/08 03:08:53;;;;;;;8.38;2.70;;;;;;;4.55;80.74;99187.50;5068908;28;20037;-66
2021/12/08 03:11:20;;;;;;;11.07;2.53;;;;;;;4.65;80.09;99184.75;5068817;28;20401;-66
2021/12/08 03:14:08;;;;;;;7.55;2.55;;;;;;;4.74;80.18;99189.91;5067663;28;20041;-66
2021/12/08 03:16:39;;;;;;;7.00;2.40;;;;;;;4.68;80.28;99200.22;5082775;28;20562;-67
2021/12/08 03:19:06;;;;;;;10.73;2.72;;;;;;;4.75;80.18;99201.25;5089509;28;20044;-67
2021/12/08 03:21:34;;;;;;;9.27;2.70;;;;;;;4.74;80.42;99195.16;5082312;28;20448;-67
2021/12/08 03:26:35;;;;;;;8.50;2.70;;;;;;;4.78;80.57;99203.56;5087748;28;20123;-66
2021/12/08 03:29:16;;;;;;;8.25;2.85;;;;;;;4.77;80.84;99200.13;5088020;28;20036;-67
2021/12/08 03:31:45;;;;;;;7.35;2.65;;;;;;;4.79;81.19;99205.22;5089089;28;20123;-67
2021/12/08 03:34:12;;;;;;;9.30;2.75;;;;;;;4.89;80.19;99205.09;5076675;28;20140;-66
2021/12/08 03:36:39;;;;;;;8.73;2.92;;;;;;;4.73;80.43;99213.69;5068834;28;20412;-66
2021/12/08 03:39:06;;;;;;;8.88;2.63;;;;;;;4.80;80.56;99218.22;5035057;28;20049;-67
2021/12/08 03:41:34;;;;;;;9.00;2.63;;;;;;;4.81;79.98;99221.66;5068518;28;20409;-67
2021/12/08 03:44:03;;;;;;;7.85;2.55;;;;;;;4.74;80.98;99220.63;5067403;28;20047;-67
2021/12/08 03:46:35;;;;;;;6.93;2.60;;;;;;;4.77;81.08;99226.38;5056589;28;20049;-67
2021/12/08 03:49:06;;;;;;;6.82;2.47;;;;;;;4.94;80.63;99229.13;5054242;28;20061;-66
2021/12/08 03:51:32;;;;;;;8.18;2.40;;;;;;;4.96;80.30;99219.28;5055652;28;20049;-67
2021/12/08 03:53:59;;;;;;;11.30;2.80;;;;;;;4.97;80.48;99226.19;5054019;28;20033;-67
2021/12/08 03:56:27;;;;;;;7.50;2.60;;;;;;;4.92;80.64;99228.47;5055237;28;20041;-68
2021/12/08 03:58:54;;;;;;;9.02;2.72;;;;;;;4.99;81.27;99227.69;5055155;28;20098;-66
2021/12/08 04:01:20;;;;;;;8.90;3.10;;;;;;;4.89;81.16;99245.34;5053971;28;20049;-67
2021/12/08 04:03:50;;;;;;;8.63;2.80;;;;;;;5.02;81.38;99241.47;5055205;28;20037;-66
2021/12/08 04:06:30;;;;;;;7.43;2.85;;;;;;;5.00;80.65;99242.47;5059077;28;20040;-67
2021/12/08 04:08:58;;;;;;;6.90;2.60;;;;;;;5.02;80.99;99234.44;5074948;28;20040;-67
2021/12/08 04:11:26;;;;;;;10.48;3.13;;;;;;;4.85;81.37;99232.69;5074786;28;20550;-66
2021/12/08 04:13:59;;;;;;;7.50;2.72;;;;;;;4.80;81.90;99226.09;5057139;28;20499;-67
2021/12/08 04:16:32;;;;;;;8.50;2.97;;;;;;;4.82;81.87;99218.06;5057293;28;20599;-66
2021/12/08 04:19:00;;;;;;;7.15;2.75;;;;;;;4.75;82.23;99219.66;5074594;28;20059;-67
2021/12/08 04:21:27;;;;;;;9.15;2.78;;;;;;;5.04;80.84;99221.13;5074821;28;20040;-67
2021/12/08 04:23:54;;;;;;;9.05;2.90;;;;;;;4.76;81.84;99218.66;5074414;28;20037;-67
2021/12/08 04:26:27;;;;;;;7.82;3.00;;;;;;;4.85;82.50;99224.78;5074705;28;20040;-67
2021/12/08 04:28:54;;;;;;;8.00;3.00;;;;;;;4.73;82.48;99219.81;5068067;28;20051;-67
2021/12/08 04:31:26;;;;;;;9.38;3.20;;;;;;;4.74;82.95;99225.88;5071661;28;20048;-67
2021/12/08 04:34:00;;;;;;;9.50;3.10;;;;;;;4.84;82.53;99205.59;5074117;28;20048;-67
2021/12/08 04:36:32;;;;;;;10.77;2.83;;;;;;;4.87;82.70;99222.84;5057275;28;20045;-67
2021/12/08 04:39:02;;;;;;;9.30;2.70;;;;;;;4.94;81.98;99224.69;5073245;28;20044;-67
2021/12/08 04:41:37;;;;;;;7.18;3.05;;;;;;;4.76;82.90;99227.34;5074455;28;20040;-67
2021/12/08 04:44:22;;;;;;;8.15;2.88;;;;;;;4.98;82.46;99225.19;5074149;28;20066;-67
2021/12/08 04:52:32;;;;;;;8.32;3.20;;;;;;;4.80;82.78;99238.38;5073156;28;20143;-67
2021/12/08 05:04:02;;;;;;;8.40;3.42;;;;;;;4.85;83.17;99258.94;5051961;28;20051;-67
2021/12/08 05:06:48;;;;;;;10.40;3.03;;;;;;;4.56;84.15;99257.41;5053813;28;20379;-67
2021/12/08 05:09:27;;;;;;;11.82;3.85;;;;;;;4.76;83.83;99261.50;5053983;28;20048;-67
2021/12/08 05:12:01;;;;;;;10.00;3.65;;;;;;;4.91;83.36;99267.06;5053735;28;20049;-67
2021/12/08 05:14:36;;;;;;;7.70;3.25;;;;;;;4.89;83.25;99269.00;5052151;28;20406;-67
2021/12/08 05:17:11;;;;;;;7.20;3.20;;;;;;;4.80;83.88;99275.16;5053916;28;20502;-67
2021/12/08 05:19:42;;;;;;;8.43;2.97;;;;;;;4.87;83.29;99268.31;5054530;28;20052;-67
2021/12/08 05:22:13;;;;;;;14.57;3.67;;;;;;;4.86;83.62;99268.47;5068220;28;20068;-67
2021/12/08 05:24:44;;;;;;;8.48;3.13;;;;;;;5.12;83.19;99271.94;5052422;28;20494;-67
2021/12/08 05:27:22;;;;;;;9.50;3.17;;;;;;;5.14;82.17;99269.16;5051763;28;20481;-67
2021/12/08 05:29:53;;;;;;;8.05;2.90;;;;;;;5.11;82.62;99274.72;5062439;28;20037;-66
2021/12/08 05:32:20;;;;;;;8.82;3.65;;;;;;;5.15;82.85;99283.97;5073098;28;20049;-67
2021/12/08 05:34:48;;;;;;;10.88;3.78;;;;;;;5.16;82.70;99275.91;5069117;28;20044;-67
2021/12/08 05:37:19;;;;;;;8.68;3.40;;;;;;;4.97;83.22;99274.31;5073020;28;20051;-67
2021/12/08 05:39:47;;;;;;;10.20;3.35;;;;;;;5.04;83.53;99278.94;5073444;28;20064;-67
2021/12/08 05:42:25;;;;;;;8.85;3.20;;;;;;;5.05;82.78;99273.53;5056081;28;20041;-67
2021/12/08 05:44:53;;;;;;;14.20;3.50;;;;;;;4.92;83.61;99279.19;5058817;28;20060;-67
2021/12/08 05:47:25;;;;;;;13.90;3.50;;;;;;;5.07;83.29;99283.91;5054203;28;20098;-67
2021/12/08 05:49:52;;;;;;;9.63;3.60;;;;;;;5.04;84.02;99292.94;5051950;28;20052;-66
2021/12/08 05:52:20;;;;;;;13.05;3.53;;;;;;;5.07;83.58;99294.41;5051887;28;20090;-66
2021/12/08 05:54:50;;;;;;;9.57;3.67;;;;;;;5.17;82.89;99284.63;5052884;28;20459;-68
2021/12/08 05:57:27;;;;;;;10.73;3.65;;;;;;;5.02;84.23;99283.53;5023817;28;20405;-67
2021/12/08 05:59:56;;;;;;;10.15;3.42;;;;;;;5.06;84.23;99280.47;5052889;28;20052;-67
2021/12/08 06:02:27;;;;;;;8.05;3.17;;;;;;;4.93;84.64;99283.50;5062546;28;20505;-67
2021/12/08 06:04:53;;;;;;;11.63;3.70;;;;;;;4.82;84.14;99278.50;5069839;28;20028;-67
2021/12/08 06:07:22;;;;;;;11.90;3.80;;;;;;;4.76;84.43;99289.59;5051779;28;20290;-67
2021/12/08 06:09:52;;;;;;;11.55;4.10;;;;;;;4.89;83.82;99295.25;5052538;28;20131;-68
2021/12/08 06:12:19;;;;;;;12.75;3.90;;;;;;;4.95;83.52;99292.03;5051460;28;20045;-67
2021/12/08 06:14:46;;;;;;;9.35;3.42;;;;;;;4.94;84.85;99294.81;5051455;28;20041;-67
2021/12/08 06:17:18;;;;;;;9.90;3.38;;;;;;;4.94;85.08;99300.91;5065021;28;20071;-67
2021/12/08 06:19:46;;;;;;;11.02;3.78;;;;;;;5.12;83.67;99300.03;5055260;28;20040;-67
2021/12/08 06:22:15;;;;;;;11.18;3.67;;;;;;;5.17;83.40;99303.84;5072802;28;20044;-67
2021/12/08 06:24:43;;;;;;;9.77;4.00;;;;;;;5.08;83.16;99299.53;5071374;28;20048;-67
2021/12/08 06:27:10;;;;;;;11.93;3.90;;;;;;;4.98;83.79;99304.88;5071276;28;20056;-67
2021/12/08 06:29:39;;;;;;;13.05;3.80;;;;;;;5.17;83.06;99305.66;5072522;28;20045;-67
2021/12/08 06:32:08;;;;;;;12.27;4.00;;;;;;;5.14;82.98;99314.69;5053156;28;20102;-66
2021/12/08 06:34:37;;;;;;;10.20;3.78;;;;;;;5.19;83.09;99320.31;5070804;28;20040;-67
2021/12/08 06:37:09;;;;;;;14.40;3.85;;;;;;;5.15;82.93;99310.25;5071436;28;20531;-66
2021/12/08 06:39:41;;;;;;;11.73;3.22;;;;;;;4.84;84.28;99310.69;5052971;28;20052;-67
2021/12/08 06:42:15;;;;;;;11.45;4.00;;;;;;;4.93;84.15;99301.88;5055850;28;20135;-67
2021/12/08 06:44:45;;;;;;;12.20;4.00;;;;;;;4.90;84.16;99320.59;5054682;28;20076;-66
2021/12/08 06:47:19;;;;;;;10.27;3.83;;;;;;;4.96;84.77;99313.88;5054390;28;20083;-67
2021/12/08 06:49:49;;;;;;;10.10;3.67;;;;;;;5.13;83.77;99320.09;5070544;28;20037;-66
2021/12/08 06:52:20;;;;;;;15.32;3.60;;;;;;;5.05;83.88;99326.13;5070800;28;20048;-67
2021/12/08 06:54:53;;;;;;;13.98;4.10;;;;;;;5.08;84.18;99332.88;5070473;28;20072;-67
2021/12/08 06:57:27;;;;;;;10.50;3.65;;;;;;;5.06;84.15;99334.81;5071980;28;20408;-67
2021/12/08 06:59:59;;;;;;;14.07;3.92;;;;;;;5.09;83.75;99345.84;5070659;28;20075;-67
2021/12/08 07:05:31;;;;;;;14.35;4.15;;;;;;;4.98;84.26;99340.84;5149945;27;20123;-65
2021/12/08 07:08:09;;;;;;;11.32;4.25;;;;;;;4.88;84.75;99342.75;5113110;28;20047;-66
2021/12/08 07:10:42;;;;;;;13.70;4.07;;;;;;;4.99;84.52;99353.84;5129612;28;20057;-67
2021/12/08 07:13:14;;;;;;;9.85;4.03;;;;;;;5.01;83.99;99343.16;5130874;27;20051;-66
2021/12/08 07:18:28;;;;;;;14.63;4.40;;;;;;;5.04;83.47;99352.53;5110707;27;20362;-66
2021/12/08 07:21:01;;;;;;;17.55;3.95;;;;;;;5.01;82.83;99348.44;5110153;28;20083;-66
2021/12/08 07:23:36;;;;;;;12.73;3.70;;;;;;;5.25;81.61;99355.66;5077590;28;20048;-66
2021/12/08 07:26:16;;;;;;;14.32;3.65;;;;;;;5.21;81.63;99358.78;5109901;28;20104;-66
2021/12/08 07:28:44;;;;;;;12.43;4.10;;;;;;;5.10;81.74;99352.78;5108757;28;20036;-66
2021/12/08 07:31:20;;;;;;;16.10;3.83;;;;;;;5.19;82.00;99359.75;5107581;28;20058;-66
2021/12/08 07:33:47;;;;;;;13.48;3.50;;;;;;;5.15;81.37;99358.41;5109478;28;20055;-67
2021/12/08 07:36:17;;;;;;;18.23;3.58;;;;;;;5.20;81.66;99360.56;5093127;28;20052;-66
2021/12/08 07:38:50;;;;;;;13.30;3.95;;;;;;;5.27;81.01;99358.16;5112255;28;20040;-67
2021/12/08 07:41:24;;;;;;;16.63;4.03;;;;;;;5.25;80.88;99349.59;5110948;28;20047;-66
2021/12/08 07:43:54;;;;;;;18.58;3.95;;;;;;;5.26;81.13;99349.44;5070160;28;20044;-66
2021/12/08 07:46:27;;;;;;;17.02;3.95;;;;;;;5.21;80.83;99349.06;5070930;28;20047;-66
2021/12/08 07:49:03;;;;;;;17.75;3.95;;;;;;;5.24;81.09;99348.78;5111992;28;20051;-66
2021/12/08 07:51:34;;;;;;;12.48;4.10;;;;;;;5.25;80.14;99362.75;5086637;28;20044;-66
2021/12/08 07:54:03;;;;;;;18.17;4.07;;;;;;;5.28;79.74;99371.16;5112622;28;20039;-66
2021/12/08 07:56:32;;;;;;;12.65;4.20;;;;;;;5.45;78.73;99372.06;5111801;28;20381;-66
2021/12/08 07:59:02;;;;;;;16.25;4.85;;;;;;;5.39;79.06;99380.59;5112009;28;20134;-67
2021/12/08 08:01:33;;;;;;;18.08;5.53;;;;;;;5.41;78.52;99388.34;5106728;28;20035;-67
2021/12/08 08:04:05;;;;;;;17.95;5.68;;;;;;;5.33;78.92;99381.19;5092918;28;20130;-66
2021/12/08 08:06:37;;;;;;;21.60;6.53;;;;;;;5.24;79.63;99375.06;5096914;28;20044;-67
2021/12/08 08:09:08;;;;;;;20.95;6.65;;;;;;;5.34;79.17;99381.03;5081792;28;20530;-66
2021/12/08 08:11:42;;;;;;;21.88;6.63;;;;;;;5.35;79.02;99382.69;5104336;28;20040;-66
2021/12/08 08:14:12;;;;;;;19.60;6.63;;;;;;;5.30;79.17;99386.78;5112160;28;20085;-66
2021/12/08 08:16:42;;;;;;;18.20;6.28;;;;;;;5.29;78.76;99378.03;5089968;28;20071;-67
2021/12/08 08:19:15;;;;;;;21.38;5.90;;;;;;;5.56;77.19;99382.34;5110840;28;20565;-66
2021/12/08 08:21:48;;;;;;;22.30;4.88;;;;;;;5.41;78.52;99388.34;5102432;28;20893;-67
2021/12/08 08:24:15;;;;;;;23.60;3.38;;;;;;;5.43;78.26;99392.44;5102543;28;20044;-67
2021/12/08 08:26:44;;;;;;;14.80;3.47;;;;;;;5.51;77.88;99381.16;5108468;28;20057;-66
2021/12/08 08:29:11;;;;;;;13.13;3.58;;;;;;;5.35;79.08;99397.66;5097310;28;20089;-67
2021/12/08 08:31:42;;;;;;;15.70;3.60;;;;;;;5.39;79.14;99399.81;5094023;28;20047;-66
2021/12/08 08:34:10;;;;;;;14.40;3.87;;;;;;;5.61;78.18;99402.13;5077420;28;20058;-67
2021/12/08 08:36:42;;;;;;;16.48;3.17;;;;;;;5.33;78.65;99400.44;5076051;28;20043;-67
2021/12/08 08:39:16;;;;;;;21.65;4.05;;;;;;;5.38;79.38;99399.97;5092373;28;20527;-67
2021/12/08 08:41:53;;;;;;;14.65;3.58;;;;;;;5.49;78.73;99404.97;5091826;28;20044;-67
2021/12/08 08:44:27;;;;;;;17.23;3.35;;;;;;;5.50;79.03;99414.53;5074962;28;20135;-66
2021/12/08 08:46:56;;;;;;;18.67;3.58;;;;;;;5.43;78.87;99413.50;5095025;28;20039;-66
2021/12/08 08:49:29;;;;;;;14.77;3.40;;;;;;;5.38;78.80;99423.63;5079221;28;20043;-66
2021/12/08 08:52:05;;;;;;;16.50;4.10;;;;;;;5.48;79.48;99413.88;5094149;28;20526;-66
2021/12/08 08:54:38;;;;;;;16.75;3.85;;;;;;;5.57;78.61;99410.31;5092969;28;20055;-66
2021/12/08 08:57:11;;;;;;;15.70;4.07;;;;;;;5.84;75.81;99415.56;5092278;28;20086;-66
2021/12/08 08:59:45;;;;;;;18.75;3.95;;;;;;;6.05;74.04;99420.47;5091133;28;20137;-68
2021/12/08 09:02:18;;;;;;;13.65;3.75;;;;;;;6.13;72.77;99415.25;5094214;28;20097;-67
2021/12/08 09:05:15;;;;;;;18.60;3.38;;;;;;;5.94;73.89;99414.47;5094931;28;20040;-66
2021/12/08 09:07:54;;;;;;;15.90;3.58;;;;;;;5.91;75.03;99411.31;5097109;28;20043;-67
2021/12/08 09:10:26;;;;;;;18.23;4.80;;;;;;;6.04;75.15;99408.28;5093117;28;20043;-65
2021/12/08 09:12:59;;;;;;;15.38;2.88;;;;;;;5.97;75.71;99413.38;5092909;28;20466;-66
2021/12/08 09:15:34;;;;;;;14.15;2.70;;;;;;;5.93;75.18;99402.31;5087240;28;20040;-66
2021/12/08 09:18:09;;;;;;;16.95;3.40;;;;;;;6.06;74.64;99409.81;5082911;28;20055;-66
2021/12/08 09:20:57;;;;;;;19.15;2.92;;;;;;;6.05;73.52;99420.47;5051920;28;20074;-66
2021/12/08 09:23:34;;;;;;;14.95;2.90;;;;;;;6.02;74.50;99426.91;5074407;28;20051;-66
2021/12/08 09:26:09;;;;;;;18.33;3.25;;;;;;;6.05;76.51;99434.47;5068016;28;20055;-66
2021/12/08 09:28:44;;;;;;;14.07;2.90;;;;;;;6.06;75.25;99441.41;5090063;28;20095;-62
2021/12/08 09:34:16;;;;;;;10.57;2.97;;;;;;;6.05;74.78;99452.06;5084596;27;20398;-62
2021/12/08 09:36:48;;;;;;;15.65;3.17;;;;;;;6.10;74.27;99455.06;5066006;28;20095;-61
2021/12/08 09:39:24;;;;;;;17.13;3.65;;;;;;;6.02;74.68;99450.59;5083366;28;20123;-61
2021/12/08 09:42:00;;;;;;;15.30;2.95;;;;;;;6.14;74.72;99451.13;5032500;28;20049;-65
2021/12/08 09:44:33;;;;;;;14.60;3.10;;;;;;;6.08;75.09;99451.78;5062699;28;20175;-66
2021/12/08 09:47:00;;;;;;;16.83;3.45;;;;;;;5.99;74.82;99448.25;5088349;28;20040;-66
2021/12/08 09:49:28;;;;;;;14.35;3.58;;;;;;;6.13;75.34;99466.13;5045206;28;20099;-65
2021/12/08 09:51:59;;;;;;;22.20;4.43;;;;;;;6.28;74.85;99455.81;5061235;28;20095;-68
2021/12/08 09:54:26;;;;;;;18.65;4.28;;;;;;;6.28;75.08;99455.81;5057105;28;20518;-66
2021/12/08 09:56:54;;;;;;;14.77;3.83;;;;;;;6.39;73.73;99451.25;5056558;28;20135;-66
2021/12/08 09:59:22;;;;;;;16.85;4.43;;;;;;;6.44;74.32;99451.59;5061881;28;20036;-65
2021/12/08 10:01:51;;;;;;;17.42;4.20;;;;;;;6.45;75.27;99450.63;5065230;28;20040;-67
2021/12/08 10:04:19;;;;;;;17.67;4.05;;;;;;;6.66;72.02;99450.22;5061838;28;20037;-66
2021/12/08 10:06:50;;;;;;;19.02;4.93;;;;;;;6.72;72.69;99453.00;5055356;28;20505;-66
2021/12/08 10:09:19;;;;;;;19.20;4.78;;;;;;;6.77;71.45;99460.44;5082219;28;20606;-67
2021/12/08 10:11:46;;;;;;;11.93;4.07;;;;;;;6.79;71.77;99458.47;5062236;28;20612;-66
2021/12/08 10:14:15;;;;;;;22.02;4.28;;;;;;;6.71;71.81;99459.28;5059810;28;20072;-66
2021/12/08 10:16:42;;;;;;;17.70;4.82;;;;;;;6.94;70.58;99465.75;5065936;28;20036;-66
2021/12/08 10:19:14;;;;;;;25.55;5.57;;;;;;;6.90;71.38;99470.53;5066574;28;20063;-69
2021/12/08 10:21:41;;;;;;;;;;;;;;;6.92;70.77;99474.63;5058880;28;20072;-67
2021/12/08 10:24:23;;;;;;;25.98;4.55;;;;;;;6.68;70.96;99472.78;5061962;28;19928;-67
2021/12/08 10:27:02;;;;;;;22.88;4.55;;;;;;;6.86;71.99;99470.03;5044478;28;20068;-66
2021/12/08 10:29:30;;;;;;;17.67;4.20;;;;;;;6.89;71.24;99471.50;5061826;28;20037;-66
2021/12/08 10:32:00;;;;;;;15.93;4.20;;;;;;;6.73;70.28;99482.81;5052818;28;20053;-66
2021/12/08 10:34:35;;;;;;;13.95;3.72;;;;;;;6.81;69.42;99479.41;5063631;28;20044;-66
2021/12/08 10:37:10;;;;;;;20.63;3.53;;;;;;;6.80;70.60;99493.56;5063001;28;20450;-65
2021/12/08 10:39:41;;;;;;;17.13;3.90;;;;;;;6.82;70.68;99481.03;5061424;28;20046;-66
2021/12/08 10:42:14;;;;;;;;;;;;;;;6.83;70.72;99478.25;5055061;28;20041;-66
2021/12/08 10:45:11;;;;;;;18.73;4.03;;;;;;;6.88;69.88;99469.88;5056103;28;20011;-66
2021/12/08 10:56:11;;;;;;;16.85;3.15;;;;;;;6.83;68.94;99457.16;5081336;28;20086;-66
2021/12/08 10:58:43;;;;;;;14.05;3.05;;;;;;;6.92;67.31;99448.28;5053420;28;20048;-67
2021/12/08 11:03:57;;;;;;;14.02;3.58;;;;;;;6.98;68.48;99453.88;5101350;27;20363;-67
2021/12/08 11:06:29;;;;;;;15.00;3.50;;;;;;;7.00;68.97;99452.72;5055164;28;21145;-66
2021/12/08 11:08:58;;;;;;;18.42;3.80;;;;;;;7.09;67.96;99456.22;5052331;28;20063;-66
2021/12/08 11:11:31;;;;;;;14.95;3.50;;;;;;;7.10;67.28;99453.41;5065769;28;20037;-65
2021/12/08 11:14:01;;;;;;;14.68;2.90;;;;;;;7.23;66.89;99454.75;5101223;28;20033;-65
2021/12/08 11:16:32;;;;;;;14.38;3.20;;;;;;;7.13;66.15;99454.91;5072575;28;20043;-65
2021/12/08 11:19:19;;;;;;;15.10;3.13;;;;;;;7.13;67.68;99467.25;5086936;28;20072;-66
2021/12/08 11:21:49;;;;;;;15.40;3.40;;;;;;;7.19;67.43;99477.19;5082611;28;20087;-66
2021/12/08 11:24:31;;;;;;;15.43;3.38;;;;;;;7.12;66.09;99479.63;5086404;28;20124;-65
2021/12/08 11:27:00;;;;;;;;;;;;;;;7.19;67.31;99480.63;5084340;28;20045;-66
2021/12/08 11:29:29;;;;;;;15.00;3.10;;;;;;;7.17;66.41;99487.03;5069442;28;19940;-66
2021/12/08 11:32:01;;;;;;;16.42;2.80;;;;;;;7.13;67.83;99486.56;5084533;28;20044;-65
2021/12/08 11:34:46;;;;;;;19.80;3.30;;;;;;;7.17;67.08;99492.31;5059836;28;20067;-65
2021/12/08 11:37:19;;;;;;;12.85;2.58;;;;;;;7.06;66.12;99488.19;5041485;28;20047;-65
2021/12/08 11:39:52;;;;;;;17.02;2.92;;;;;;;7.24;67.29;99488.88;5053581;28;20042;-65
2021/12/08 11:42:22;;;;;;;13.90;2.97;;;;;;;7.16;67.33;99493.31;5053990;28;20097;-68
2021/12/08 11:44:54;;;;;;;15.00;3.33;;;;;;;7.51;66.99;99484.28;5063900;28;20044;-65
2021/12/08 11:47:27;;;;;;;18.05;3.58;;;;;;;7.60;65.98;99483.28;5087306;28;20541;-65
2021/12/08 11:49:57;;;;;;;16.35;3.10;;;;;;;7.72;66.22;99472.41;5071494;28;20040;-65
2021/12/08 11:52:29;;;;;;;17.42;4.03;;;;;;;7.83;65.97;99459.66;5085984;28;20412;-65
2021/12/08 11:55:00;;;;;;;14.00;3.10;;;;;;;7.91;65.49;99455.38;5066881;28;20447;-65
2021/12/08 11:57:36;;;;;;;22.15;3.40;;;;;;;7.83;65.48;99446.47;5068579;28;20063;-65
2021/12/08 12:02:55;;;;;;;24.85;3.97;;;;;;;7.97;65.82;99438.88;5094986;27;20186;-67
2021/12/08 12:05:26;;;;;;;12.65;2.78;;;;;;;7.91;64.77;99442.97;5076504;28;20575;-67
2021/12/08 12:07:54;;;;;;;17.63;3.17;;;;;;;8.01;63.91;99454.19;5068460;28;20055;-67
2021/12/08 12:10:24;;;;;;;21.20;2.70;;;;;;;8.05;62.28;99455.50;5065259;28;20061;-67
2021/12/08 12:12:53;;;;;;;9.93;2.70;;;;;;;8.04;62.57;99456.50;5057474;28;20563;-67
2021/12/08 12:15:22;;;;;;;11.90;2.70;;;;;;;7.94;61.24;99455.84;5060831;28;20040;-66
2021/12/08 12:17:50;;;;;;;12.38;2.45;;;;;;;7.93;62.40;99459.50;5069412;28;20500;-66
2021/12/08 12:20:24;;;;;;;14.73;2.72;;;;;;;7.99;61.60;99458.81;5056325;28;20032;-67
2021/12/08 12:23:30;;;;;;;11.38;2.30;;;;;;;8.20;60.57;99470.66;5059809;28;20132;-65
2021/12/08 12:26:14;;;;;;;16.48;2.53;;;;;;;8.20;60.96;99482.03;5075200;28;20037;-66
2021/12/08 12:29:06;;;;;;;17.05;2.70;;;;;;;8.51;58.14;99499.00;5056503;28;20063;-66
2021/12/08 12:31:44;;;;;;;12.20;2.13;;;;;;;8.26;59.90;99494.59;5075840;28;20445;-67
2021/12/08 12:34:32;;;;;;;16.10;2.47;;;;;;;8.33;58.83;99489.47;5066005;28;20032;-67
2021/12/08 12:37:05;;;;;;;11.50;2.90;;;;;;;8.29;59.53;99497.88;5062362;28;21370;-68
2021/12/08 12:39:32;;;;;;;12.20;2.10;;;;;;;8.20;59.91;99497.06;5060116;28;20455;-66
2021/12/08 12:44:42;;;;;;;12.57;2.33;;;;;;;8.56;59.47;99494.84;5072008;28;20420;-67
2021/12/08 12:47:15;;;;;;;14.93;2.05;;;;;;;8.34;59.79;99495.56;5046554;28;20041;-67
2021/12/08 12:50:06;;;;;;;10.57;2.47;;;;;;;8.17;61.06;99489.50;5059843;28;20036;-71
2021/12/08 12:52:38;;;;;;;21.50;4.53;;;;;;;8.13;60.59;99491.66;5059401;28;20056;-70
2021/12/08 12:55:09;;;;;;;18.15;3.47;;;;;;;8.09;61.27;99495.59;5058041;28;20041;-71
2021/12/08 13:00:47;;;;;;;16.60;3.92;;;;;;;7.94;60.61;99513.13;5084713;28;20504;-71